Time,TemperatureF,DewpointF,PressureIn,WindDirection,WindDirectionDegrees,WindSpeedMPH,WindSpeedGustMPH,Humidity,HourlyPrecipIn,Conditions,Clouds,dailyrainin,SoftwareType,DateUTC
2013-05-21 00:02:00,62.1,60.9,29.73,South,173,0.0,3.0,96,0.00,,,0.00,Wunderground v.1.15,2013-05-21 05:02:00,
2013-05-21 00:07:00,62.1,60.9,29.73,SSW,212,1.0,3.0,96,0.00,,,0.00,Wunderground v.1.15,2013-05-21 05:07:00,
2013-05-21 00:13:00,62.3,60.8,29.73,SW,214,0.0,4.0,95,0.00,,,0.00,Wunderground v.1.15,2013-05-21 05:13:00,
2013-05-21 00:19:00,62.6,61.1,29.75,ESE,123,3.0,4.0,95,0.00,,,0.00,Wunderground v.1.15,2013-05-21 05:19:00,
2013-05-21 00:24:00,62.7,60.9,29.75,SE,128,0.0,2.0,94,0.00,,,0.00,Wunderground v.1.15,2013-05-21 05:24:00,
2013-05-21 00:29:00,62.9,60.8,29.75,South,176,1.0,2.0,93,0.00,,,0.00,Wunderground v.1.15,2013-05-21 05:29:00,
2013-05-21 00:35:00,63.1,60.7,29.74,SSE,167,0.0,2.0,92,0.00,,,0.00,Wunderground v.1.15,2013-05-21 05:35:00,
2013-05-21 00:41:00,63.1,60.7,29.74,SSE,167,0.0,1.0,92,0.00,,,0.00,Wunderground v.1.15,2013-05-21 05:41:00,
2013-05-21 00:47:00,62.9,60.5,29.74,SSE,167,0.0,1.0,92,0.00,,,0.00,Wunderground v.1.15,2013-05-21 05:47:00,
2013-05-21 00:52:00,62.7,60.3,29.74,SSE,167,0.0,0.0,92,0.00,,,0.00,Wunderground v.1.15,2013-05-21 05:52:00,
2013-05-21 00:57:00,62.6,60.5,29.74,SSE,167,3.0,3.0,93,0.00,,,0.00,Wunderground v.1.15,2013-05-21 05:57:00,
2013-05-21 01:03:00,62.6,60.5,29.73,SSE,167,0.0,0.0,93,0.00,,,0.00,Wunderground v.1.15,2013-05-21 06:03:00,
2013-05-21 01:09:00,62.6,60.5,29.73,SSE,167,0.0,0.0,93,0.00,,,0.00,Wunderground v.1.15,2013-05-21 06:09:00,
2013-05-21 01:15:00,62.4,60.3,29.75,SSE,167,0.0,0.0,93,0.00,,,0.00,Wunderground v.1.15,2013-05-21 06:15:00,
2013-05-21 01:21:00,62.3,60.2,29.75,SSE,167,0.0,0.0,93,0.00,,,0.00,Wunderground v.1.15,2013-05-21 06:21:00,
2013-05-21 01:27:00,62.1,60.4,29.75,SSE,167,0.0,2.0,94,0.00,,,0.00,Wunderground v.1.15,2013-05-21 06:27:00,
2013-05-21 01:33:00,62.1,60.4,29.75,SSE,167,0.0,2.0,94,0.00,,,0.00,Wunderground v.1.15,2013-05-21 06:33:00,
2013-05-21 01:39:00,62.1,60.4,29.75,SSW,209,0.0,2.0,94,0.00,,,0.00,Wunderground v.1.15,2013-05-21 06:39:00,
2013-05-21 01:45:00,62.1,60.4,29.73,SSE,163,3.0,3.0,94,0.00,,,0.00,Wunderground v.1.15,2013-05-21 06:45:00,
2013-05-21 01:51:00,62.1,60.4,29.73,South,173,3.0,4.0,94,0.00,,,0.00,Wunderground v.1.15,2013-05-21 06:51:00,
2013-05-21 01:57:00,62.3,60.2,29.73,SE,140,0.0,4.0,93,0.00,,,0.00,Wunderground v.1.15,2013-05-21 06:57:00,
2013-05-21 02:02:00,62.3,60.2,29.71,SE,140,0.0,3.0,93,0.00,,,0.00,Wunderground v.1.15,2013-05-21 07:02:00,
2013-05-21 02:07:00,62.4,60.3,29.71,SE,140,0.0,3.0,93,0.00,,,0.00,Wunderground v.1.15,2013-05-21 07:07:00,
2013-05-21 02:12:00,62.4,60.0,29.71,SE,140,0.0,0.0,92,0.00,,,0.00,Wunderground v.1.15,2013-05-21 07:12:00,
2013-05-21 02:17:00,62.4,60.0,29.70,SE,140,0.0,2.0,92,0.00,,,0.00,Wunderground v.1.15,2013-05-21 07:17:00,
2013-05-21 02:22:00,62.3,59.9,29.70,SE,140,0.0,0.0,92,0.00,,,0.00,Wunderground v.1.15,2013-05-21 07:22:00,
2013-05-21 02:27:00,62.3,59.9,29.70,South,171,0.0,5.0,92,0.00,,,0.00,Wunderground v.1.15,2013-05-21 07:27:00,
2013-05-21 02:32:00,62.1,59.7,29.70,South,171,0.0,1.0,92,0.00,,,0.00,Wunderground v.1.15,2013-05-21 07:32:00,
2013-05-21 02:37:00,62.1,59.7,29.70,South,171,0.0,1.0,92,0.00,,,0.00,Wunderground v.1.15,2013-05-21 07:37:00,
2013-05-21 02:42:00,62.0,59.6,29.70,South,170,3.0,3.0,92,0.00,,,0.00,Wunderground v.1.15,2013-05-21 07:42:00,
2013-05-21 02:47:00,61.8,59.5,29.70,SE,131,0.0,3.0,92,0.00,,,0.00,Wunderground v.1.15,2013-05-21 07:47:00,
2013-05-21 02:52:00,61.6,59.3,29.70,SE,131,0.0,1.0,92,0.00,,,0.00,Wunderground v.1.15,2013-05-21 07:52:00,
2013-05-21 02:57:00,61.5,59.2,29.70,SE,131,0.0,3.0,92,0.00,,,0.00,Wunderground v.1.15,2013-05-21 07:57:00,
2013-05-21 03:02:00,61.5,58.8,29.70,SE,131,0.0,3.0,91,0.00,,,0.00,Wunderground v.1.15,2013-05-21 08:02:00,
2013-05-21 03:07:00,61.3,59.0,29.70,SE,131,0.0,4.0,92,0.00,,,0.00,Wunderground v.1.15,2013-05-21 08:07:00,
2013-05-21 03:12:00,61.2,58.9,29.70,SE,131,0.0,0.0,92,0.00,,,0.00,Wunderground v.1.15,2013-05-21 08:12:00,
2013-05-21 03:18:00,61.0,58.7,29.72,SE,131,0.0,0.0,92,0.00,,,0.00,Wunderground v.1.15,2013-05-21 08:18:00,
2013-05-21 03:23:00,61.0,58.7,29.72,SE,131,2.0,2.0,92,0.00,,,0.00,Wunderground v.1.15,2013-05-21 08:23:00,
2013-05-21 03:28:00,61.0,58.7,29.72,SE,131,0.0,3.0,92,0.00,,,0.00,Wunderground v.1.15,2013-05-21 08:28:00,
2013-05-21 03:33:00,61.0,58.7,29.72,SE,131,0.0,2.0,92,0.00,,,0.00,Wunderground v.1.15,2013-05-21 08:33:00,
2013-05-21 03:38:00,61.0,58.7,29.72,SE,131,0.0,2.0,92,0.00,,,0.00,Wunderground v.1.15,2013-05-21 08:38:00,
2013-05-21 03:43:00,60.9,58.6,29.72,SE,131,1.0,1.0,92,0.00,,,0.00,Wunderground v.1.15,2013-05-21 08:43:00,
2013-05-21 03:48:00,60.9,58.6,29.73,SE,131,0.0,2.0,92,0.00,,,0.00,Wunderground v.1.15,2013-05-21 08:48:00,
2013-05-21 03:53:00,60.9,58.6,29.73,SE,131,0.0,1.0,92,0.00,,,0.00,Wunderground v.1.15,2013-05-21 08:53:00,
2013-05-21 03:58:00,60.9,58.6,29.73,SE,131,0.0,1.0,92,0.00,,,0.00,Wunderground v.1.15,2013-05-21 08:58:00,
2013-05-21 04:03:00,60.7,58.4,29.73,SE,131,0.0,0.0,92,0.00,,,0.00,Wunderground v.1.15,2013-05-21 09:03:00,
2013-05-21 04:08:00,60.5,58.2,29.73,SE,131,0.0,0.0,92,0.00,,,0.00,Wunderground v.1.15,2013-05-21 09:08:00,
2013-05-21 04:13:00,60.5,58.2,29.73,SE,131,0.0,0.0,92,0.00,,,0.00,Wunderground v.1.15,2013-05-21 09:13:00,
2013-05-21 04:18:00,60.2,57.9,29.75,SE,131,0.0,0.0,92,0.00,,,0.00,Wunderground v.1.15,2013-05-21 09:18:00,
2013-05-21 04:23:00,59.8,57.5,29.75,SE,131,0.0,0.0,92,0.00,,,0.00,Wunderground v.1.15,2013-05-21 09:23:00,
2013-05-21 04:28:00,59.5,57.2,29.75,SE,131,0.0,0.0,92,0.00,,,0.00,Wunderground v.1.15,2013-05-21 09:28:00,
2013-05-21 04:33:00,59.6,57.6,29.75,SE,131,0.0,0.0,93,0.00,,,0.00,Wunderground v.1.15,2013-05-21 09:33:00,
2013-05-21 04:38:00,59.8,57.8,29.75,SE,131,0.0,0.0,93,0.00,,,0.00,Wunderground v.1.15,2013-05-21 09:38:00,
2013-05-21 04:43:00,59.6,57.6,29.75,SE,131,0.0,0.0,93,0.00,,,0.00,Wunderground v.1.15,2013-05-21 09:43:00,
2013-05-21 04:48:00,59.5,57.5,29.75,SE,131,0.0,0.0,93,0.00,,,0.00,Wunderground v.1.15,2013-05-21 09:48:00,
2013-05-21 04:53:00,59.5,57.8,29.75,SE,131,0.0,0.0,94,0.00,,,0.00,Wunderground v.1.15,2013-05-21 09:53:00,
2013-05-21 04:58:00,59.6,57.9,29.75,SE,131,0.0,0.0,94,0.00,,,0.00,Wunderground v.1.15,2013-05-21 09:58:00,
2013-05-21 05:03:00,59.8,58.1,29.76,SE,131,0.0,0.0,94,0.00,,,0.00,Wunderground v.1.15,2013-05-21 10:03:00,
2013-05-21 05:08:00,59.9,58.2,29.76,SE,131,0.0,3.0,94,0.00,,,0.00,Wunderground v.1.15,2013-05-21 10:08:00,
2013-05-21 05:13:00,60.2,58.5,29.76,SE,131,0.0,3.0,94,0.00,,,0.00,Wunderground v.1.15,2013-05-21 10:13:00,
2013-05-21 05:18:00,60.4,59.0,29.76,SE,131,0.0,3.0,95,0.00,,,0.00,Wunderground v.1.15,2013-05-21 10:18:00,
2013-05-21 05:23:00,60.5,59.1,29.76,SE,132,4.0,4.0,95,0.00,,,0.00,Wunderground v.1.15,2013-05-21 10:23:00,
2013-05-21 05:28:00,60.7,59.3,29.76,SE,145,0.0,7.0,95,0.00,,,0.00,Wunderground v.1.15,2013-05-21 10:28:00,
2013-05-21 05:33:00,60.9,59.2,29.75,SE,145,1.0,3.0,94,0.00,,,0.00,Wunderground v.1.15,2013-05-21 10:33:00,
2013-05-21 05:38:00,60.9,59.2,29.75,SE,145,0.0,3.0,94,0.00,,,0.00,Wunderground v.1.15,2013-05-21 10:38:00,
2013-05-21 05:43:00,60.9,59.2,29.75,SSE,165,2.0,5.0,94,0.00,,,0.00,Wunderground v.1.15,2013-05-21 10:43:00,
2013-05-21 05:48:00,60.9,59.2,29.74,SSE,165,0.0,5.0,94,0.00,,,0.00,Wunderground v.1.15,2013-05-21 10:48:00,
2013-05-21 05:53:00,60.9,59.2,29.74,SSE,165,0.0,2.0,94,0.00,,,0.00,Wunderground v.1.15,2013-05-21 10:53:00,
2013-05-21 05:58:00,60.9,59.2,29.74,SSE,165,0.0,2.0,94,0.00,,,0.00,Wunderground v.1.15,2013-05-21 10:58:00,
2013-05-21 06:03:00,60.9,59.2,29.75,SSE,165,0.0,3.0,94,0.00,,,0.00,Wunderground v.1.15,2013-05-21 11:03:00,
2013-05-21 06:08:00,60.9,59.2,29.75,SSE,165,0.0,3.0,94,0.00,,,0.00,Wunderground v.1.15,2013-05-21 11:08:00,
2013-05-21 06:13:00,60.9,59.2,29.75,SSE,165,0.0,0.0,94,0.00,,,0.00,Wunderground v.1.15,2013-05-21 11:13:00,
2013-05-21 06:18:00,60.9,59.2,29.75,SSE,165,0.0,0.0,94,0.00,,,0.00,Wunderground v.1.15,2013-05-21 11:18:00,
2013-05-21 06:23:00,60.7,59.0,29.75,SSE,165,0.0,2.0,94,0.00,,,0.00,Wunderground v.1.15,2013-05-21 11:23:00,
2013-05-21 06:28:00,60.5,58.8,29.75,SSE,165,0.0,2.0,94,0.00,,,0.00,Wunderground v.1.15,2013-05-21 11:28:00,
2013-05-21 06:33:00,60.5,58.8,29.75,SSE,165,0.0,0.0,94,0.00,,,0.00,Wunderground v.1.15,2013-05-21 11:33:00,
2013-05-21 06:38:00,60.5,58.8,29.75,SSE,165,0.0,0.0,94,0.00,,,0.00,Wunderground v.1.15,2013-05-21 11:38:00,
2013-05-21 06:43:00,60.5,58.8,29.75,SSE,165,0.0,0.0,94,0.00,,,0.00,Wunderground v.1.15,2013-05-21 11:43:00,
2013-05-21 06:48:00,60.5,58.8,29.75,SSE,165,0.0,0.0,94,0.00,,,0.00,Wunderground v.1.15,2013-05-21 11:48:00,
2013-05-21 06:53:00,60.5,58.8,29.75,SSE,165,0.0,3.0,94,0.00,,,0.00,Wunderground v.1.15,2013-05-21 11:53:00,
2013-05-21 06:59:00,60.5,59.1,29.75,SSE,165,0.0,3.0,95,0.00,,,0.00,Wunderground v.1.15,2013-05-21 11:59:00,
2013-05-21 07:04:00,60.5,58.8,29.75,SSE,165,0.0,0.0,94,0.00,,,0.00,Wunderground v.1.15,2013-05-21 12:04:00,
2013-05-21 07:09:00,60.5,59.1,29.75,SSE,165,0.0,0.0,95,0.00,,,0.00,Wunderground v.1.15,2013-05-21 12:09:00,
2013-05-21 07:14:00,60.7,59.3,29.75,SSE,165,0.0,0.0,95,0.00,,,0.00,Wunderground v.1.15,2013-05-21 12:14:00,
2013-05-21 07:19:00,60.9,59.5,29.76,SSE,165,0.0,0.0,95,0.00,,,0.00,Wunderground v.1.15,2013-05-21 12:19:00,
2013-05-21 07:24:00,61.0,59.6,29.76,SSE,165,0.0,0.0,95,0.00,,,0.00,Wunderground v.1.15,2013-05-21 12:24:00,
2013-05-21 07:29:00,61.2,59.8,29.76,SSE,165,0.0,0.0,95,0.00,,,0.00,Wunderground v.1.15,2013-05-21 12:29:00,
2013-05-21 07:34:00,61.3,59.9,29.76,SSE,165,2.0,4.0,95,0.00,,,0.00,Wunderground v.1.15,2013-05-21 12:34:00,
2013-05-21 07:39:00,61.5,60.1,29.76,SSE,165,2.0,4.0,95,0.00,,,0.00,Wunderground v.1.15,2013-05-21 12:39:00,
2013-05-21 07:44:00,61.8,60.4,29.76,SSE,165,0.0,3.0,95,0.00,,,0.00,Wunderground v.1.15,2013-05-21 12:44:00,
2013-05-21 07:49:00,62.1,60.7,29.78,North,9,0.0,4.0,95,0.00,,,0.00,Wunderground v.1.15,2013-05-21 12:49:00,
2013-05-21 07:54:00,62.3,60.8,29.78,North,9,0.0,1.0,95,0.00,,,0.00,Wunderground v.1.15,2013-05-21 12:54:00,
2013-05-21 07:59:00,62.4,60.9,29.78,NNE,20,0.0,1.0,95,0.00,,,0.00,Wunderground v.1.15,2013-05-21 12:59:00,
2013-05-21 08:04:00,62.4,60.7,29.78,NNE,20,0.0,3.0,94,0.00,,,0.00,Wunderground v.1.15,2013-05-21 13:04:00,
2013-05-21 08:09:00,62.6,60.8,29.78,NNE,20,0.0,3.0,94,0.00,,,0.00,Wunderground v.1.15,2013-05-21 13:09:00,
2013-05-21 08:14:00,62.7,60.9,29.78,NNE,20,0.0,0.0,94,0.00,,,0.00,Wunderground v.1.15,2013-05-21 13:14:00,
2013-05-21 08:19:00,62.7,60.9,29.79,NNE,20,0.0,0.0,94,0.00,,,0.00,Wunderground v.1.15,2013-05-21 13:19:00,
2013-05-21 08:24:00,62.7,60.6,29.79,NNE,20,2.0,3.0,93,0.00,,,0.00,Wunderground v.1.15,2013-05-21 13:24:00,
2013-05-21 08:29:00,62.6,60.5,29.79,NNE,20,0.0,3.0,93,0.00,,,0.00,Wunderground v.1.15,2013-05-21 13:29:00,
2013-05-21 08:34:00,62.6,60.5,29.78,NNE,20,0.0,0.0,93,0.00,,,0.00,Wunderground v.1.15,2013-05-21 13:34:00,
2013-05-21 08:39:00,62.6,60.5,29.78,NNE,20,0.0,0.0,93,0.00,,,0.00,Wunderground v.1.15,2013-05-21 13:39:00,
2013-05-21 08:44:00,62.6,60.5,29.78,NNE,20,0.0,0.0,93,0.00,,,0.00,Wunderground v.1.15,2013-05-21 13:44:00,
2013-05-21 08:49:00,62.4,60.3,29.79,NW,310,0.0,2.0,93,0.00,,,0.00,Wunderground v.1.15,2013-05-21 13:49:00,
2013-05-21 08:54:00,62.6,60.5,29.79,NW,310,0.0,0.0,93,0.00,,,0.00,Wunderground v.1.15,2013-05-21 13:54:00,
2013-05-21 08:59:00,62.6,60.2,29.79,WNW,292,0.0,2.0,92,0.00,,,0.00,Wunderground v.1.15,2013-05-21 13:59:00,
2013-05-21 09:04:00,62.9,60.5,29.78,WNW,292,0.0,0.0,92,0.00,,,0.00,Wunderground v.1.15,2013-05-21 14:04:00,
2013-05-21 09:09:00,63.2,60.8,29.78,WNW,292,0.0,0.0,92,0.00,,,0.00,Wunderground v.1.15,2013-05-21 14:09:00,
2013-05-21 09:14:00,63.7,61.0,29.78,SSE,153,2.0,4.0,91,0.00,,,0.00,Wunderground v.1.15,2013-05-21 14:14:00,
2013-05-21 09:19:00,64.2,61.2,29.78,South,174,0.0,4.0,90,0.00,,,0.00,Wunderground v.1.15,2013-05-21 14:19:00,
2013-05-21 09:24:00,64.5,61.2,29.78,SSE,163,0.0,4.0,89,0.00,,,0.00,Wunderground v.1.15,2013-05-21 14:24:00,
2013-05-21 09:29:00,65.2,61.6,29.78,SSE,163,0.0,4.0,88,0.00,,,0.00,Wunderground v.1.15,2013-05-21 14:29:00,
2013-05-21 09:34:00,65.6,61.3,29.77,SSE,163,0.0,2.0,86,0.00,,,0.00,Wunderground v.1.15,2013-05-21 14:34:00,
2013-05-21 09:39:00,66.3,61.7,29.77,South,186,0.0,2.0,85,0.00,,,0.00,Wunderground v.1.15,2013-05-21 14:39:00,
2013-05-21 09:44:00,66.6,61.3,29.77,SE,140,0.0,5.0,83,0.00,,,0.00,Wunderground v.1.15,2013-05-21 14:44:00,
2013-05-21 09:49:00,66.8,61.1,29.77,SE,144,0.0,5.0,82,0.00,,,0.00,Wunderground v.1.15,2013-05-21 14:49:00,
2013-05-21 09:54:00,66.8,61.1,29.77,SE,144,0.0,1.0,82,0.00,,,0.00,Wunderground v.1.15,2013-05-21 14:54:00,
2013-05-21 09:59:00,66.9,60.9,29.77,WSW,246,0.0,3.0,81,0.00,,,0.00,Wunderground v.1.15,2013-05-21 14:59:00,
2013-05-21 10:04:00,66.9,60.9,29.77,WSW,246,0.0,2.0,81,0.00,,,0.00,Wunderground v.1.15,2013-05-21 15:04:00,
2013-05-21 10:10:00,67.1,61.1,29.77,North,360,0.0,0.0,81,0.00,,,0.00,Wunderground v.1.15,2013-05-21 15:10:00,
2013-05-21 10:15:00,67.3,61.6,29.77,North,360,0.0,1.0,82,0.00,,,0.00,Wunderground v.1.15,2013-05-21 15:15:00,
2013-05-21 10:20:00,67.3,61.3,29.78,North,360,0.0,0.0,81,0.00,,,0.00,Wunderground v.1.15,2013-05-21 15:20:00,
2013-05-21 10:25:00,67.1,61.1,29.78,North,360,0.0,2.0,81,0.00,,,0.00,Wunderground v.1.15,2013-05-21 15:25:00,
2013-05-21 10:30:00,66.9,60.9,29.80,SSW,197,0.0,0.0,81,0.00,,,0.00,Wunderground v.1.15,2013-05-21 15:30:00,
2013-05-21 10:35:00,66.8,61.1,29.80,SSW,197,0.0,2.0,82,0.00,,,0.00,Wunderground v.1.15,2013-05-21 15:35:00,
2013-05-21 10:40:00,66.8,61.1,29.80,SSW,197,0.0,0.0,82,0.00,,,0.00,Wunderground v.1.15,2013-05-21 15:40:00,
2013-05-21 10:46:00,66.9,61.6,29.80,SSW,197,0.0,0.0,83,0.00,,,0.00,Wunderground v.1.15,2013-05-21 15:46:00,
2013-05-21 10:51:00,66.9,61.6,29.80,SSW,213,0.0,4.0,83,0.00,,,0.00,Wunderground v.1.15,2013-05-21 15:51:00,
2013-05-21 10:56:00,66.9,61.6,29.80,South,183,5.0,5.0,83,0.00,,,0.00,Wunderground v.1.15,2013-05-21 15:56:00,
2013-05-21 11:01:00,66.9,61.6,29.82,SW,234,0.0,0.0,83,0.00,,,0.00,Wunderground v.1.15,2013-05-21 16:01:00,
2013-05-21 11:06:00,67.1,61.8,29.82,ESE,109,1.0,5.0,83,0.00,,,0.00,Wunderground v.1.15,2013-05-21 16:06:00,
2013-05-21 11:11:00,67.1,61.4,29.82,South,184,1.0,1.0,82,0.00,,,0.00,Wunderground v.1.15,2013-05-21 16:11:00,
2013-05-21 11:16:00,67.1,61.1,29.80,SW,217,2.0,5.0,81,0.00,,,0.00,Wunderground v.1.15,2013-05-21 16:16:00,
2013-05-21 11:21:00,66.9,60.9,29.80,South,183,0.0,5.0,81,0.00,,,0.00,Wunderground v.1.15,2013-05-21 16:21:00,
2013-05-21 11:26:00,66.8,60.4,29.80,SSE,150,6.0,6.0,80,0.00,,,0.00,Wunderground v.1.15,2013-05-21 16:26:00,
2013-05-21 11:31:00,66.6,60.2,29.77,SE,141,3.0,5.0,80,0.00,,,0.00,Wunderground v.1.15,2013-05-21 16:31:00,
2013-05-21 11:36:00,66.4,60.0,29.77,SE,133,3.0,10.0,80,0.00,,,0.00,Wunderground v.1.15,2013-05-21 16:36:00,
2013-05-21 11:41:00,66.3,59.9,29.77,SE,135,6.0,6.0,80,0.00,,,0.00,Wunderground v.1.15,2013-05-21 16:41:00,
2013-05-21 11:46:00,66.1,59.4,29.74,ESE,115,9.0,13.0,79,0.00,,,0.00,Wunderground v.1.15,2013-05-21 16:46:00,
2013-05-21 11:51:00,66.0,59.3,29.74,NNW,344,2.0,5.0,79,0.00,,,0.00,Wunderground v.1.15,2013-05-21 16:51:00,
2013-05-21 11:56:00,65.6,59.3,29.74,WSW,238,0.0,6.0,80,0.00,,,0.00,Wunderground v.1.15,2013-05-21 16:56:00,
2013-05-21 12:01:00,65.5,59.5,29.76,SW,234,1.0,3.0,81,0.00,,,0.00,Wunderground v.1.15,2013-05-21 17:01:00,
2013-05-21 12:06:00,65.5,59.5,29.76,North,10,0.0,9.0,81,0.00,,,0.00,Wunderground v.1.15,2013-05-21 17:06:00,
2013-05-21 12:11:00,65.3,59.7,29.76,NW,321,1.0,3.0,82,0.00,,,0.00,Wunderground v.1.15,2013-05-21 17:11:00,
2013-05-21 12:16:00,65.2,59.6,29.80,SSW,205,7.0,7.0,82,0.00,,,0.00,Wunderground v.1.15,2013-05-21 17:16:00,
2013-05-21 12:21:00,65.2,59.6,29.80,South,184,0.0,3.0,82,0.00,,,0.00,Wunderground v.1.15,2013-05-21 17:21:00,
2013-05-21 12:26:00,65.2,59.6,29.80,SE,141,5.0,6.0,82,0.00,,,0.00,Wunderground v.1.15,2013-05-21 17:26:00,
2013-05-21 12:31:00,65.0,59.4,29.79,NNW,329,0.0,3.0,82,0.00,,,0.00,Wunderground v.1.15,2013-05-21 17:31:00,
2013-05-21 12:36:00,65.0,59.4,29.79,South,188,5.0,5.0,82,0.00,,,0.00,Wunderground v.1.15,2013-05-21 17:36:00,
2013-05-21 12:41:00,65.0,59.0,29.79,SSE,156,6.0,7.0,81,0.00,,,0.00,Wunderground v.1.15,2013-05-21 17:41:00,
2013-05-21 12:46:00,64.7,58.7,29.79,WSW,246,4.0,12.0,81,0.00,,,0.00,Wunderground v.1.15,2013-05-21 17:46:00,
2013-05-21 12:51:00,64.5,58.9,29.79,ESE,120,0.0,5.0,82,0.00,,,0.00,Wunderground v.1.15,2013-05-21 17:51:00,
2013-05-21 12:56:00,64.3,59.0,29.79,SSE,159,4.0,12.0,83,0.00,,,0.00,Wunderground v.1.15,2013-05-21 17:56:00,
2013-05-21 13:02:00,64.2,59.3,29.76,SSE,150,4.0,16.0,84,0.00,,,0.00,Wunderground v.1.15,2013-05-21 18:02:00,
2013-05-21 13:07:00,64.2,59.3,29.76,SSW,204,5.0,16.0,84,0.00,,,0.00,Wunderground v.1.15,2013-05-21 18:07:00,
2013-05-21 13:12:00,64.2,59.6,29.76,NNW,338,1.0,9.0,85,0.00,,,0.00,Wunderground v.1.15,2013-05-21 18:12:00,
2013-05-21 13:17:00,64.0,59.7,29.83,ESE,117,0.0,9.0,86,0.00,,,0.00,Wunderground v.1.15,2013-05-21 18:17:00,
2013-05-21 13:22:00,64.0,59.4,29.83,South,178,0.0,5.0,85,0.00,,,0.00,Wunderground v.1.15,2013-05-21 18:22:00,
2013-05-21 13:27:00,64.0,59.4,29.83,South,184,0.0,5.0,85,0.00,,,0.00,Wunderground v.1.15,2013-05-21 18:27:00,
2013-05-21 13:32:00,64.2,59.6,29.81,WSW,242,3.0,7.0,85,0.00,,,0.00,Wunderground v.1.15,2013-05-21 18:32:00,
2013-05-21 13:37:00,64.3,59.7,29.81,SSW,209,2.0,7.0,85,0.00,,,0.00,Wunderground v.1.15,2013-05-21 18:37:00,
2013-05-21 13:42:00,64.3,59.7,29.81,SSW,213,0.0,4.0,85,0.00,,,0.00,Wunderground v.1.15,2013-05-21 18:42:00,
2013-05-21 13:47:00,64.3,59.7,29.83,SSW,213,0.0,4.0,85,0.00,,,0.00,Wunderground v.1.15,2013-05-21 18:47:00,
2013-05-21 13:52:00,64.3,59.7,29.83,SSW,209,0.0,3.0,85,0.00,,,0.00,Wunderground v.1.15,2013-05-21 18:52:00,
2013-05-21 13:58:00,64.2,59.6,29.83,South,184,2.0,5.0,85,0.00,,,0.00,Wunderground v.1.15,2013-05-21 18:58:00,
2013-05-21 14:03:00,64.2,59.9,29.81,South,184,0.0,2.0,86,0.00,,,0.00,Wunderground v.1.15,2013-05-21 19:03:00,
2013-05-21 14:08:00,64.2,59.9,29.81,SSW,192,4.0,5.0,86,0.00,,,0.00,Wunderground v.1.15,2013-05-21 19:08:00,
2013-05-21 14:13:00,63.9,59.6,29.81,South,184,0.0,2.0,86,0.00,,,0.00,Wunderground v.1.15,2013-05-21 19:13:00,
2013-05-21 14:18:00,63.9,60.0,29.77,SE,144,5.0,5.0,87,0.00,,,0.01,Wunderground v.1.15,2013-05-21 19:18:00,
2013-05-21 14:23:00,63.9,60.0,29.77,South,171,2.0,6.0,87,0.00,,,0.01,Wunderground v.1.15,2013-05-21 19:23:00,
2013-05-21 14:28:00,63.7,60.1,29.77,SW,218,0.0,6.0,88,0.00,,,0.01,Wunderground v.1.15,2013-05-21 19:28:00,
2013-05-21 14:33:00,63.5,59.6,29.75,SW,219,0.0,1.0,87,0.00,,,0.01,Wunderground v.1.15,2013-05-21 19:33:00,
2013-05-21 14:38:00,63.7,60.1,29.75,SW,219,0.0,2.0,88,0.00,,,0.01,Wunderground v.1.15,2013-05-21 19:38:00,
2013-05-21 14:43:00,63.9,60.3,29.75,SSW,203,0.0,1.0,88,0.00,,,0.01,Wunderground v.1.15,2013-05-21 19:43:00,
2013-05-21 14:48:00,64.0,60.7,29.74,SSW,203,0.0,1.0,89,0.00,,,0.01,Wunderground v.1.15,2013-05-21 19:48:00,
2013-05-21 14:53:00,64.2,60.9,29.74,SSW,203,0.0,1.0,89,0.00,,,0.01,Wunderground v.1.15,2013-05-21 19:53:00,
2013-05-21 14:58:00,64.5,60.9,29.74,SE,137,0.0,5.0,88,0.00,,,0.01,Wunderground v.1.15,2013-05-21 19:58:00,
2013-05-21 15:03:00,64.8,61.2,29.68,SE,137,0.0,0.0,88,0.00,,,0.01,Wunderground v.1.15,2013-05-21 20:03:00,
2013-05-21 15:08:00,64.8,60.5,29.68,SSE,156,0.0,6.0,86,0.00,,,0.01,Wunderground v.1.15,2013-05-21 20:08:00,
2013-05-21 15:13:00,64.8,60.5,29.68,SSE,157,0.0,3.0,86,0.00,,,0.01,Wunderground v.1.15,2013-05-21 20:13:00,
2013-05-21 15:18:00,65.2,60.6,29.69,SSE,157,0.0,3.0,85,0.00,,,0.01,Wunderground v.1.15,2013-05-21 20:18:00,
2013-05-21 15:23:00,65.3,60.0,29.69,SSE,157,0.0,0.0,83,0.00,,,0.01,Wunderground v.1.15,2013-05-21 20:23:00,
2013-05-21 15:28:00,65.6,60.3,29.69,SSE,157,0.0,0.0,83,0.00,,,0.01,Wunderground v.1.15,2013-05-21 20:28:00,
2013-05-21 15:33:00,66.1,60.8,29.72,SSE,157,0.0,3.0,83,0.00,,,0.01,Wunderground v.1.15,2013-05-21 20:33:00,
2013-05-21 15:38:00,66.8,61.5,29.72,NNW,347,3.0,5.0,83,0.00,,,0.01,Wunderground v.1.15,2013-05-21 20:38:00,
2013-05-21 15:43:00,66.9,61.6,29.72,North,351,2.0,5.0,83,0.00,,,0.01,Wunderground v.1.15,2013-05-21 20:43:00,
2013-05-21 15:48:00,66.8,60.8,29.73,NNW,348,3.0,9.0,81,0.00,,,0.01,Wunderground v.1.15,2013-05-21 20:48:00,
2013-05-21 15:54:00,67.1,61.4,29.73,North,5,0.0,7.0,82,0.00,,,0.01,Wunderground v.1.15,2013-05-21 20:54:00,
2013-05-21 15:59:00,67.6,61.2,29.73,North,355,3.0,8.0,80,0.00,,,0.01,Wunderground v.1.15,2013-05-21 20:59:00,
2013-05-21 16:04:00,68.3,62.6,29.75,North,355,1.0,6.0,82,0.00,,,0.01,Wunderground v.1.15,2013-05-21 21:04:00,
2013-05-21 16:08:00,68.4,60.9,29.75,NNW,337,0.0,7.0,77,0.00,,,0.01,Wunderground v.1.15,2013-05-21 21:08:00,
2013-05-21 16:14:00,68.8,61.7,29.75,North,355,4.0,11.0,78,0.00,,,0.01,Wunderground v.1.15,2013-05-21 21:14:00,
2013-05-21 16:19:00,69.1,60.8,29.74,SSE,154,2.0,11.0,75,0.00,,,0.01,Wunderground v.1.15,2013-05-21 21:19:00,
2013-05-21 16:24:00,68.8,59.8,29.74,North,360,2.0,7.0,73,0.00,,,0.01,Wunderground v.1.15,2013-05-21 21:24:00,
2013-05-21 16:29:00,68.6,59.6,29.74,WSW,239,3.0,7.0,73,0.00,,,0.01,Wunderground v.1.15,2013-05-21 21:29:00,
2013-05-21 16:34:00,68.1,59.1,29.77,ESE,117,1.0,5.0,73,0.00,,,0.01,Wunderground v.1.15,2013-05-21 21:34:00,
2013-05-21 16:39:00,68.3,59.7,29.77,SE,138,0.0,5.0,74,0.00,,,0.01,Wunderground v.1.15,2013-05-21 21:39:00,
2013-05-21 16:44:00,68.1,59.1,29.77,West,267,0.0,9.0,73,0.00,,,0.01,Wunderground v.1.15,2013-05-21 21:44:00,
2013-05-21 16:49:00,67.9,58.9,29.76,NW,313,4.0,9.0,73,0.00,,,0.01,Wunderground v.1.15,2013-05-21 21:49:00,
2013-05-21 16:54:00,67.8,58.8,29.76,SSW,209,0.0,4.0,73,0.00,,,0.01,Wunderground v.1.15,2013-05-21 21:54:00,
2013-05-21 16:59:00,67.8,58.4,29.76,SW,234,0.0,4.0,72,0.00,,,0.01,Wunderground v.1.15,2013-05-21 21:59:00,
2013-05-21 17:04:00,67.6,58.6,29.78,SSE,152,0.0,5.0,73,0.00,,,0.01,Wunderground v.1.15,2013-05-21 22:04:00,
2013-05-21 17:09:00,67.4,58.4,29.78,South,171,0.0,5.0,73,0.00,,,0.01,Wunderground v.1.15,2013-05-21 22:09:00,
2013-05-21 17:14:00,67.3,58.7,29.78,South,169,0.0,3.0,74,0.00,,,0.01,Wunderground v.1.15,2013-05-21 22:14:00,
2013-05-21 17:19:00,66.9,58.7,29.78,South,183,0.0,6.0,75,0.00,,,0.01,Wunderground v.1.15,2013-05-21 22:19:00,
2013-05-21 17:24:00,66.8,58.6,29.78,SSW,202,0.0,7.0,75,0.00,,,0.01,Wunderground v.1.15,2013-05-21 22:24:00,
2013-05-21 17:29:00,66.4,58.6,29.78,SSW,204,3.0,8.0,76,0.00,,,0.01,Wunderground v.1.15,2013-05-21 22:29:00,
2013-05-21 17:34:00,66.3,58.9,29.78,SSW,198,4.0,7.0,77,0.00,,,0.01,Wunderground v.1.15,2013-05-21 22:34:00,
2013-05-21 17:39:00,66.1,59.0,29.78,SSW,203,0.0,7.0,78,0.00,,,0.01,Wunderground v.1.15,2013-05-21 22:39:00,
2013-05-21 17:44:00,66.0,59.3,29.78,SSE,149,1.0,5.0,79,0.00,,,0.01,Wunderground v.1.15,2013-05-21 22:44:00,
2013-05-21 17:49:00,65.8,59.5,29.76,SSE,149,0.0,5.0,80,0.00,,,0.01,Wunderground v.1.15,2013-05-21 22:49:00,
2013-05-21 17:54:00,65.6,60.0,29.76,WSW,246,3.0,11.0,82,0.00,,,0.01,Wunderground v.1.15,2013-05-21 22:54:00,
2013-05-21 17:59:00,65.3,59.7,29.76,SE,141,1.0,11.0,82,0.00,,,0.01,Wunderground v.1.15,2013-05-21 22:59:00,
2013-05-21 18:04:00,65.2,59.9,29.74,South,182,0.0,4.0,83,0.00,,,0.01,Wunderground v.1.15,2013-05-21 23:04:00,
2013-05-21 18:09:00,65.0,59.7,29.74,SSE,148,0.0,4.0,83,0.00,,,0.01,Wunderground v.1.15,2013-05-21 23:09:00,
2013-05-21 18:14:00,64.7,59.4,29.74,SSE,155,3.0,6.0,83,0.00,,,0.01,Wunderground v.1.15,2013-05-21 23:14:00,
2013-05-21 18:19:00,64.3,58.7,29.74,ESE,119,3.0,6.0,82,0.00,,,0.01,Wunderground v.1.15,2013-05-21 23:19:00,
2013-05-21 18:24:00,64.2,58.6,29.74,SSW,198,1.0,5.0,82,0.00,,,0.01,Wunderground v.1.15,2013-05-21 23:24:00,
2013-05-21 18:29:00,64.0,58.7,29.74,SE,132,2.0,6.0,83,0.00,,,0.01,Wunderground v.1.15,2013-05-21 23:29:00,
2013-05-21 18:34:00,63.5,57.9,29.72,South,179,5.0,9.0,82,0.00,,,0.01,Wunderground v.1.15,2013-05-21 23:34:00,
2013-05-21 18:39:00,63.4,57.5,29.72,ESE,107,4.0,10.0,81,0.00,,,0.01,Wunderground v.1.15,2013-05-21 23:39:00,
2013-05-21 18:44:00,63.5,56.9,29.72,SE,146,0.0,12.0,79,0.00,,,0.01,Wunderground v.1.15,2013-05-21 23:44:00,
2013-05-21 18:50:00,63.7,57.1,29.71,South,169,3.0,3.0,79,0.00,,,0.01,Wunderground v.1.15,2013-05-21 23:50:00,
2013-05-21 18:55:00,63.5,57.2,29.71,SSE,154,4.0,11.0,80,0.00,,,0.01,Wunderground v.1.15,2013-05-21 23:55:00,
2013-05-21 19:00:00,63.5,56.9,29.71,South,188,6.0,6.0,79,0.00,,,0.01,Wunderground v.1.15,2013-05-22 00:00:00,
2013-05-21 19:05:00,63.5,56.9,29.69,SSW,192,0.0,6.0,79,0.00,,,0.01,Wunderground v.1.15,2013-05-22 00:05:00,
2013-05-21 19:10:00,63.7,56.7,29.69,SE,142,1.0,2.0,78,0.00,,,0.01,Wunderground v.1.15,2013-05-22 00:10:00,
2013-05-21 19:15:00,63.7,56.4,29.69,SSE,150,3.0,6.0,77,0.00,,,0.01,Wunderground v.1.15,2013-05-22 00:15:00,
2013-05-21 19:20:00,63.7,56.4,29.66,SE,136,5.0,7.0,77,0.00,,,0.01,Wunderground v.1.15,2013-05-22 00:20:00,
2013-05-21 19:25:00,63.7,56.7,29.66,SSE,151,3.0,9.0,78,0.00,,,0.01,Wunderground v.1.15,2013-05-22 00:25:00,
2013-05-21 19:30:00,63.7,56.7,29.66,SSE,156,4.0,4.0,78,0.00,,,0.01,Wunderground v.1.15,2013-05-22 00:30:00,
2013-05-21 19:35:00,63.9,56.2,29.63,South,172,3.0,7.0,76,0.00,,,0.01,Wunderground v.1.15,2013-05-22 00:35:00,
2013-05-21 19:40:00,64.0,56.3,29.63,SE,134,6.0,6.0,76,0.00,,,0.01,Wunderground v.1.15,2013-05-22 00:40:00,
2013-05-21 19:45:00,64.0,55.9,29.63,SSE,151,4.0,11.0,75,0.00,,,0.01,Wunderground v.1.15,2013-05-22 00:45:00,
2013-05-21 19:50:00,64.2,55.7,29.62,SSE,148,3.0,5.0,74,0.00,,,0.01,Wunderground v.1.15,2013-05-22 00:50:00,
2013-05-21 19:55:00,64.0,55.9,29.62,SE,144,0.0,10.0,75,0.00,,,0.01,Wunderground v.1.15,2013-05-22 00:55:00,
2013-05-21 20:00:00,63.9,56.2,29.58,North,360,4.0,4.0,76,0.00,,,0.01,Wunderground v.1.15,2013-05-22 01:00:00,
2013-05-21 20:05:00,63.5,56.2,29.58,South,188,5.0,9.0,77,0.00,,,0.01,Wunderground v.1.15,2013-05-22 01:05:00,
2013-05-21 20:10:00,63.4,56.8,29.58,SSE,168,2.0,6.0,79,0.00,,,0.01,Wunderground v.1.15,2013-05-22 01:10:00,
2013-05-21 20:15:00,63.1,56.5,29.57,SSE,160,5.0,17.0,79,0.00,,,0.01,Wunderground v.1.15,2013-05-22 01:15:00,
2013-05-21 20:20:00,62.7,56.8,29.57,ESE,103,4.0,5.0,81,0.00,,,0.01,Wunderground v.1.15,2013-05-22 01:20:00,
2013-05-21 20:25:00,62.6,57.0,29.57,NNW,340,4.0,7.0,82,0.00,,,0.01,Wunderground v.1.15,2013-05-22 01:25:00,
2013-05-21 20:31:00,62.3,56.7,29.65,ENE,59,3.0,4.0,82,0.00,,,0.01,Wunderground v.1.15,2013-05-22 01:31:00,
2013-05-21 20:36:00,62.4,56.1,29.65,South,180,0.0,9.0,80,0.00,,,0.01,Wunderground v.1.15,2013-05-22 01:36:00,
2013-05-21 20:41:00,62.7,56.1,29.65,North,350,0.0,2.0,79,0.00,,,0.01,Wunderground v.1.15,2013-05-22 01:41:00,
2013-05-21 20:46:00,63.1,55.8,29.68,NE,45,0.0,7.0,77,0.00,,,0.01,Wunderground v.1.15,2013-05-22 01:46:00,
2013-05-21 20:51:00,63.5,55.4,29.68,South,172,0.0,3.0,75,0.00,,,0.01,Wunderground v.1.15,2013-05-22 01:51:00,
2013-05-21 20:56:00,63.7,55.6,29.68,North,349,2.0,5.0,75,0.00,,,0.01,Wunderground v.1.15,2013-05-22 01:56:00,
2013-05-21 21:01:00,63.5,55.4,29.68,North,349,0.0,3.0,75,0.00,,,0.01,Wunderground v.1.15,2013-05-22 02:01:00,
2013-05-21 21:06:00,63.2,55.5,29.68,North,349,0.0,3.0,76,0.00,,,0.01,Wunderground v.1.15,2013-05-22 02:06:00,
2013-05-21 21:11:00,63.1,56.1,29.68,North,349,0.0,0.0,78,0.00,,,0.01,Wunderground v.1.15,2013-05-22 02:11:00,
2013-05-21 21:16:00,62.9,55.9,29.68,North,349,0.0,0.0,78,0.00,,,0.01,Wunderground v.1.15,2013-05-22 02:16:00,
2013-05-21 21:21:00,62.7,56.1,29.68,North,349,0.0,0.0,79,0.00,,,0.01,Wunderground v.1.15,2013-05-22 02:21:00,
2013-05-21 21:26:00,62.4,56.1,29.68,North,349,0.0,0.0,80,0.00,,,0.01,Wunderground v.1.15,2013-05-22 02:26:00,
2013-05-21 21:31:00,62.3,56.0,29.70,North,349,0.0,0.0,80,0.00,,,0.01,Wunderground v.1.15,2013-05-22 02:31:00,
2013-05-21 21:36:00,62.1,56.2,29.70,North,349,0.0,0.0,81,0.00,,,0.01,Wunderground v.1.15,2013-05-22 02:36:00,
2013-05-21 21:41:00,62.0,56.4,29.70,North,349,0.0,0.0,82,0.00,,,0.01,Wunderground v.1.15,2013-05-22 02:41:00,
2013-05-21 21:46:00,61.8,56.2,29.71,North,349,0.0,0.0,82,0.00,,,0.01,Wunderground v.1.15,2013-05-22 02:46:00,
2013-05-21 21:51:00,61.6,56.4,29.71,North,349,0.0,0.0,83,0.00,,,0.01,Wunderground v.1.15,2013-05-22 02:51:00,
2013-05-21 21:56:00,61.3,56.1,29.71,North,349,0.0,0.0,83,0.00,,,0.01,Wunderground v.1.15,2013-05-22 02:56:00,
2013-05-21 22:01:00,61.2,56.3,29.73,North,349,0.0,0.0,84,0.00,,,0.01,Wunderground v.1.15,2013-05-22 03:01:00,
2013-05-21 22:06:00,60.9,56.4,29.73,North,349,0.0,0.0,85,0.00,,,0.01,Wunderground v.1.15,2013-05-22 03:06:00,
2013-05-21 22:11:00,60.7,56.2,29.73,North,349,1.0,2.0,85,0.00,,,0.01,Wunderground v.1.15,2013-05-22 03:11:00,
2013-05-21 22:16:00,60.4,55.9,29.73,North,349,0.0,2.0,85,0.00,,,0.01,Wunderground v.1.15,2013-05-22 03:16:00,
2013-05-21 22:21:00,60.4,55.9,29.73,North,349,0.0,0.0,85,0.00,,,0.01,Wunderground v.1.15,2013-05-22 03:21:00,
2013-05-21 22:26:00,60.2,56.0,29.73,North,349,0.0,0.0,86,0.00,,,0.01,Wunderground v.1.15,2013-05-22 03:26:00,
2013-05-21 22:31:00,60.1,55.9,29.73,North,349,0.0,0.0,86,0.00,,,0.01,Wunderground v.1.15,2013-05-22 03:31:00,
2013-05-21 22:37:00,59.9,55.7,29.73,North,349,0.0,0.0,86,0.00,,,0.01,Wunderground v.1.15,2013-05-22 03:37:00,
2013-05-21 22:42:00,59.8,55.6,29.73,North,349,0.0,1.0,86,0.00,,,0.01,Wunderground v.1.15,2013-05-22 03:42:00,
2013-05-21 22:47:00,59.6,55.7,29.73,North,349,0.0,1.0,87,0.00,,,0.01,Wunderground v.1.15,2013-05-22 03:47:00,
2013-05-21 22:52:00,59.5,55.6,29.73,North,349,0.0,0.0,87,0.00,,,0.01,Wunderground v.1.15,2013-05-22 03:52:00,
2013-05-21 22:57:00,59.2,55.3,29.73,North,349,0.0,0.0,87,0.00,,,0.01,Wunderground v.1.15,2013-05-22 03:57:00,
2013-05-21 23:01:00,59.2,55.6,29.74,North,349,0.0,0.0,88,0.00,,,0.01,Wunderground v.1.15,2013-05-22 04:01:00,
2013-05-21 23:06:00,59.2,55.6,29.74,North,349,0.0,0.0,88,0.00,,,0.01,Wunderground v.1.15,2013-05-22 04:06:00,
2013-05-21 23:11:00,59.2,56.0,29.74,North,349,0.0,0.0,89,0.00,,,0.01,Wunderground v.1.15,2013-05-22 04:11:00,
2013-05-21 23:16:00,59.0,55.8,29.74,North,349,0.0,0.0,89,0.00,,,0.01,Wunderground v.1.15,2013-05-22 04:16:00,
2013-05-21 23:21:00,59.0,55.8,29.74,North,349,0.0,0.0,89,0.00,,,0.01,Wunderground v.1.15,2013-05-22 04:21:00,
2013-05-21 23:26:00,59.0,55.8,29.74,North,349,0.0,0.0,89,0.00,,,0.01,Wunderground v.1.15,2013-05-22 04:26:00,
2013-05-21 23:31:00,58.9,55.7,29.74,North,349,0.0,0.0,89,0.00,,,0.01,Wunderground v.1.15,2013-05-22 04:31:00,
2013-05-21 23:36:00,59.0,56.1,29.74,North,349,0.0,0.0,90,0.00,,,0.01,Wunderground v.1.15,2013-05-22 04:36:00,
2013-05-21 23:41:00,59.0,56.1,29.74,North,349,0.0,0.0,90,0.00,,,0.01,Wunderground v.1.15,2013-05-22 04:41:00,
2013-05-21 23:46:00,59.2,56.3,29.75,North,349,0.0,0.0,90,0.00,,,0.01,Wunderground v.1.15,2013-05-22 04:46:00,
2013-05-21 23:52:00,59.3,56.4,29.75,North,349,0.0,0.0,90,0.00,,,0.01,Wunderground v.1.15,2013-05-22 04:52:00,
2013-05-21 23:57:00,59.5,56.6,29.75,North,349,0.0,2.0,90,0.00,,,0.01,Wunderground v.1.15,2013-05-22 04:57:00,